sensor_id;sensor_type;location;lat;lon;timestamp;P1;durP1;ratioP1;P2;durP2;ratioP2
39102;SDS011;24847;48.218;16.414;2022-11-15T00:01:05;29.75;;;17.65;;
39102;SDS011;24847;48.218;16.414;2022-11-15T00:06:10;29.42;;;17.58;;
39102;SDS011;24847;48.218;16.414;2022-11-15T00:11:13;30.77;;;17.23;;
39102;SDS011;24847;48.218;16.414;2022-11-15T00:16:15;29.38;;;17.30;;
39102;SDS011;24847;48.218;16.414;2022-11-15T00:21:19;31.08;;;18.40;;
39102;SDS011;24847;48.218;16.414;2022-11-15T00:26:21;30.85;;;17.02;;
39102;SDS011;24847;48.218;16.414;2022-11-15T00:31:24;29.55;;;16.25;;
39102;SDS011;24847;48.218;16.414;2022-11-15T00:36:27;31.55;;;16.02;;
39102;SDS011;24847;48.218;16.414;2022-11-15T00:41:30;27.15;;;16.60;;
39102;SDS011;24847;48.218;16.414;2022-11-15T00:46:32;28.10;;;16.80;;
39102;SDS011;24847;48.218;16.414;2022-11-15T00:51:36;26.98;;;15.73;;
39102;SDS011;24847;48.218;16.414;2022-11-15T00:56:39;27.50;;;16.17;;
39102;SDS011;24847;48.218;16.414;2022-11-15T01:01:41;27.63;;;15.35;;
39102;SDS011;24847;48.218;16.414;2022-11-15T01:06:44;29.52;;;16.35;;
39102;SDS011;24847;48.218;16.414;2022-11-15T01:11:47;26.13;;;15.63;;
39102;SDS011;24847;48.218;16.414;2022-11-15T01:16:49;26.52;;;16.02;;
39102;SDS011;24847;48.218;16.414;2022-11-15T01:21:53;26.00;;;16.60;;
39102;SDS011;24847;48.218;16.414;2022-11-15T01:26:55;30.95;;;18.13;;
39102;SDS011;24847;48.218;16.414;2022-11-15T01:31:57;31.20;;;17.70;;
39102;SDS011;24847;48.218;16.414;2022-11-15T01:37:01;29.30;;;17.83;;
39102;SDS011;24847;48.218;16.414;2022-11-15T01:42:03;25.90;;;15.93;;
39102;SDS011;24847;48.218;16.414;2022-11-15T01:47:06;25.25;;;15.80;;
39102;SDS011;24847;48.218;16.414;2022-11-15T01:52:15;26.63;;;16.35;;
39102;SDS011;24847;48.218;16.414;2022-11-15T01:57:21;28.27;;;16.13;;
39102;SDS011;24847;48.218;16.414;2022-11-15T02:02:23;28.10;;;16.77;;
39102;SDS011;24847;48.218;16.414;2022-11-15T02:07:27;25.20;;;15.10;;
39102;SDS011;24847;48.218;16.414;2022-11-15T02:12:31;23.63;;;14.77;;
39102;SDS011;24847;48.218;16.414;2022-11-15T02:17:39;23.67;;;13.68;;
39102;SDS011;24847;48.218;16.414;2022-11-15T02:23:02;25.30;;;14.63;;
39102;SDS011;24847;48.218;16.414;2022-11-15T02:28:40;24.63;;;14.50;;
39102;SDS011;24847;48.218;16.414;2022-11-15T02:33:57;26.60;;;15.32;;
39102;SDS011;24847;48.218;16.414;2022-11-15T02:39:08;27.60;;;16.10;;
39102;SDS011;24847;48.218;16.414;2022-11-15T02:44:20;29.60;;;16.25;;
39102;SDS011;24847;48.218;16.414;2022-11-15T02:49:27;28.13;;;15.50;;
39102;SDS011;24847;48.218;16.414;2022-11-15T02:54:33;24.10;;;14.27;;
39102;SDS011;24847;48.218;16.414;2022-11-15T02:59:44;23.77;;;13.50;;
39102;SDS011;24847;48.218;16.414;2022-11-15T03:05:08;25.30;;;15.05;;
39102;SDS011;24847;48.218;16.414;2022-11-15T03:10:21;26.67;;;16.20;;
39102;SDS011;24847;48.218;16.414;2022-11-15T03:15:27;25.83;;;15.27;;
39102;SDS011;24847;48.218;16.414;2022-11-15T03:20:35;28.42;;;16.20;;
39102;SDS011;24847;48.218;16.414;2022-11-15T03:25:40;24.30;;;14.52;;
39102;SDS011;24847;48.218;16.414;2022-11-15T03:30:52;25.42;;;14.13;;
39102;SDS011;24847;48.218;16.414;2022-11-15T03:35:58;25.20;;;15.35;;
39102;SDS011;24847;48.218;16.414;2022-11-15T03:41:01;30.05;;;16.58;;
39102;SDS011;24847;48.218;16.414;2022-11-15T03:46:10;32.03;;;17.58;;
39102;SDS011;24847;48.218;16.414;2022-11-15T03:51:17;34.47;;;18.52;;
39102;SDS011;24847;48.218;16.414;2022-11-15T03:56:20;29.90;;;17.65;;
39102;SDS011;24847;48.218;16.414;2022-11-15T04:01:23;34.80;;;18.75;;
39102;SDS011;24847;48.218;16.414;2022-11-15T04:06:26;31.48;;;17.33;;
39102;SDS011;24847;48.218;16.414;2022-11-15T04:11:29;30.90;;;16.20;;
39102;SDS011;24847;48.218;16.414;2022-11-15T04:16:31;28.38;;;15.75;;
39102;SDS011;24847;48.218;16.414;2022-11-15T04:21:35;29.40;;;16.13;;
39102;SDS011;24847;48.218;16.414;2022-11-15T04:26:54;28.00;;;14.88;;
39102;SDS011;24847;48.218;16.414;2022-11-15T04:31:56;31.70;;;16.08;;
39102;SDS011;24847;48.218;16.414;2022-11-15T04:37:00;28.42;;;16.52;;
39102;SDS011;24847;48.218;16.414;2022-11-15T04:42:16;33.97;;;17.70;;
39102;SDS011;24847;48.218;16.414;2022-11-15T04:47:18;34.50;;;17.27;;
39102;SDS011;24847;48.218;16.414;2022-11-15T04:52:22;28.58;;;15.90;;
39102;SDS011;24847;48.218;16.414;2022-11-15T04:57:24;30.45;;;16.17;;
39102;SDS011;24847;48.218;16.414;2022-11-15T05:02:26;32.95;;;17.17;;
39102;SDS011;24847;48.218;16.414;2022-11-15T05:07:51;35.05;;;17.60;;
39102;SDS011;24847;48.218;16.414;2022-11-15T05:12:53;31.63;;;16.75;;
39102;SDS011;24847;48.218;16.414;2022-11-15T05:17:57;36.22;;;18.00;;
39102;SDS011;24847;48.218;16.414;2022-11-15T05:23:02;47.60;;;24.05;;
39102;SDS011;24847;48.218;16.414;2022-11-15T05:28:04;43.05;;;21.23;;
39102;SDS011;24847;48.218;16.414;2022-11-15T05:33:06;38.72;;;19.63;;
39102;SDS011;24847;48.218;16.414;2022-11-15T05:38:10;35.78;;;20.02;;
39102;SDS011;24847;48.218;16.414;2022-11-15T05:43:12;43.17;;;21.08;;
39102;SDS011;24847;48.218;16.414;2022-11-15T05:48:15;39.63;;;20.98;;
39102;SDS011;24847;48.218;16.414;2022-11-15T05:53:19;43.65;;;20.80;;
39102;SDS011;24847;48.218;16.414;2022-11-15T05:58:24;45.70;;;20.52;;
39102;SDS011;24847;48.218;16.414;2022-11-15T06:03:26;42.78;;;20.75;;
39102;SDS011;24847;48.218;16.414;2022-11-15T06:08:30;33.67;;;19.60;;
39102;SDS011;24847;48.218;16.414;2022-11-15T06:13:33;35.83;;;19.00;;
39102;SDS011;24847;48.218;16.414;2022-11-15T06:18:35;44.90;;;20.25;;
39102;SDS011;24847;48.218;16.414;2022-11-15T06:23:39;37.95;;;18.88;;
39102;SDS011;24847;48.218;16.414;2022-11-15T06:28:42;39.00;;;21.15;;
39102;SDS011;24847;48.218;16.414;2022-11-15T06:33:44;41.03;;;19.67;;
39102;SDS011;24847;48.218;16.414;2022-11-15T06:38:51;46.38;;;21.73;;
39102;SDS011;24847;48.218;16.414;2022-11-15T06:43:53;41.15;;;20.30;;
39102;SDS011;24847;48.218;16.414;2022-11-15T06:48:55;42.38;;;21.52;;
39102;SDS011;24847;48.218;16.414;2022-11-15T06:53:59;37.72;;;21.52;;
39102;SDS011;24847;48.218;16.414;2022-11-15T06:59:02;45.83;;;21.50;;
39102;SDS011;24847;48.218;16.414;2022-11-15T07:04:04;38.38;;;21.35;;
39102;SDS011;24847;48.218;16.414;2022-11-15T07:09:07;35.33;;;20.20;;
39102;SDS011;24847;48.218;16.414;2022-11-15T07:14:10;41.70;;;19.48;;
39102;SDS011;24847;48.218;16.414;2022-11-15T07:19:12;39.80;;;20.65;;
39102;SDS011;24847;48.218;16.414;2022-11-15T07:24:17;59.33;;;31.80;;
39102;SDS011;24847;48.218;16.414;2022-11-15T07:29:19;39.22;;;20.25;;
39102;SDS011;24847;48.218;16.414;2022-11-15T07:34:21;39.60;;;20.17;;
39102;SDS011;24847;48.218;16.414;2022-11-15T07:39:25;40.58;;;20.20;;
39102;SDS011;24847;48.218;16.414;2022-11-15T07:44:27;46.10;;;26.00;;
39102;SDS011;24847;48.218;16.414;2022-11-15T07:49:29;40.22;;;19.95;;
39102;SDS011;24847;48.218;16.414;2022-11-15T07:54:33;40.63;;;21.98;;
39102;SDS011;24847;48.218;16.414;2022-11-15T07:59:35;42.72;;;21.80;;
39102;SDS011;24847;48.218;16.414;2022-11-15T08:04:38;40.67;;;21.38;;
39102;SDS011;24847;48.218;16.414;2022-11-15T08:09:41;41.22;;;20.38;;
39102;SDS011;24847;48.218;16.414;2022-11-15T08:14:44;39.60;;;20.50;;
39102;SDS011;24847;48.218;16.414;2022-11-15T08:19:46;37.28;;;20.10;;
39102;SDS011;24847;48.218;16.414;2022-11-15T08:24:50;37.78;;;21.02;;
39102;SDS011;24847;48.218;16.414;2022-11-15T08:29:52;40.63;;;22.08;;
39102;SDS011;24847;48.218;16.414;2022-11-15T08:34:55;44.17;;;21.90;;
39102;SDS011;24847;48.218;16.414;2022-11-15T08:39:58;39.75;;;21.60;;
39102;SDS011;24847;48.218;16.414;2022-11-15T08:45:01;49.95;;;23.08;;
39102;SDS011;24847;48.218;16.414;2022-11-15T08:50:05;47.05;;;21.10;;
39102;SDS011;24847;48.218;16.414;2022-11-15T08:55:09;36.72;;;19.65;;
39102;SDS011;24847;48.218;16.414;2022-11-15T09:00:12;43.78;;;20.27;;
39102;SDS011;24847;48.218;16.414;2022-11-15T09:05:16;53.05;;;24.98;;
39102;SDS011;24847;48.218;16.414;2022-11-15T09:10:20;34.10;;;17.85;;
39102;SDS011;24847;48.218;16.414;2022-11-15T09:15:22;33.20;;;17.05;;
39102;SDS011;24847;48.218;16.414;2022-11-15T09:20:25;37.83;;;19.60;;
39102;SDS011;24847;48.218;16.414;2022-11-15T09:25:28;42.05;;;20.83;;
39102;SDS011;24847;48.218;16.414;2022-11-15T09:30:31;39.97;;;21.13;;
39102;SDS011;24847;48.218;16.414;2022-11-15T09:35:34;43.28;;;21.00;;
39102;SDS011;24847;48.218;16.414;2022-11-15T09:40:38;39.40;;;20.63;;
39102;SDS011;24847;48.218;16.414;2022-11-15T09:45:42;45.53;;;22.38;;
39102;SDS011;24847;48.218;16.414;2022-11-15T09:56:10;39.85;;;20.33;;
39102;SDS011;24847;48.218;16.414;2022-11-15T10:01:19;40.33;;;21.02;;
39102;SDS011;24847;48.218;16.414;2022-11-15T10:06:36;41.22;;;22.60;;
39102;SDS011;24847;48.218;16.414;2022-11-15T10:11:45;37.28;;;19.77;;
39102;SDS011;24847;48.218;16.414;2022-11-15T10:16:56;32.33;;;16.73;;
39102;SDS011;24847;48.218;16.414;2022-11-15T10:22:18;30.30;;;17.50;;
39102;SDS011;24847;48.218;16.414;2022-11-15T10:27:30;31.10;;;16.10;;
39102;SDS011;24847;48.218;16.414;2022-11-15T10:32:32;30.63;;;16.63;;
39102;SDS011;24847;48.218;16.414;2022-11-15T10:37:38;33.80;;;17.85;;
39102;SDS011;24847;48.218;16.414;2022-11-15T10:42:42;33.33;;;18.77;;
39102;SDS011;24847;48.218;16.414;2022-11-15T10:47:44;38.50;;;19.33;;
39102;SDS011;24847;48.218;16.414;2022-11-15T10:52:46;41.20;;;22.02;;
39102;SDS011;24847;48.218;16.414;2022-11-15T10:57:51;43.95;;;23.45;;
39102;SDS011;24847;48.218;16.414;2022-11-15T11:02:57;46.85;;;24.13;;
39102;SDS011;24847;48.218;16.414;2022-11-15T11:08:02;39.97;;;22.42;;
39102;SDS011;24847;48.218;16.414;2022-11-15T11:13:15;40.97;;;21.00;;
39102;SDS011;24847;48.218;16.414;2022-11-15T11:18:25;39.35;;;21.98;;
39102;SDS011;24847;48.218;16.414;2022-11-15T11:23:44;42.67;;;23.15;;
39102;SDS011;24847;48.218;16.414;2022-11-15T11:28:56;40.45;;;23.13;;
39102;SDS011;24847;48.218;16.414;2022-11-15T11:34:13;39.13;;;21.40;;
39102;SDS011;24847;48.218;16.414;2022-11-15T11:39:28;38.75;;;20.70;;
39102;SDS011;24847;48.218;16.414;2022-11-15T11:44:49;38.73;;;21.00;;
39102;SDS011;24847;48.218;16.414;2022-11-15T11:50:02;35.72;;;19.40;;
39102;SDS011;24847;48.218;16.414;2022-11-15T11:55:14;40.45;;;21.48;;
39102;SDS011;24847;48.218;16.414;2022-11-15T12:00:21;39.90;;;20.67;;
39102;SDS011;24847;48.218;16.414;2022-11-15T12:05:28;37.47;;;21.42;;
39102;SDS011;24847;48.218;16.414;2022-11-15T12:10:34;37.13;;;19.80;;
39102;SDS011;24847;48.218;16.414;2022-11-15T12:15:41;38.60;;;20.65;;
39102;SDS011;24847;48.218;16.414;2022-11-15T12:20:51;34.10;;;20.02;;
39102;SDS011;24847;48.218;16.414;2022-11-15T12:25:58;39.28;;;20.08;;
39102;SDS011;24847;48.218;16.414;2022-11-15T12:31:10;33.10;;;18.92;;
39102;SDS011;24847;48.218;16.414;2022-11-15T12:36:30;36.28;;;20.35;;
39102;SDS011;24847;48.218;16.414;2022-11-15T12:41:38;38.28;;;20.85;;
39102;SDS011;24847;48.218;16.414;2022-11-15T12:52:26;43.58;;;23.35;;
39102;SDS011;24847;48.218;16.414;2022-11-15T12:57:33;43.22;;;23.67;;
39102;SDS011;24847;48.218;16.414;2022-11-15T13:02:45;47.53;;;26.38;;
39102;SDS011;24847;48.218;16.414;2022-11-15T13:07:56;45.55;;;24.15;;
39102;SDS011;24847;48.218;16.414;2022-11-15T13:13:00;37.10;;;21.73;;
39102;SDS011;24847;48.218;16.414;2022-11-15T13:23:37;30.02;;;19.48;;
39102;SDS011;24847;48.218;16.414;2022-11-15T13:28:41;30.30;;;19.38;;
39102;SDS011;24847;48.218;16.414;2022-11-15T13:33:47;29.48;;;18.02;;
39102;SDS011;24847;48.218;16.414;2022-11-15T13:38:54;40.03;;;25.88;;
39102;SDS011;24847;48.218;16.414;2022-11-15T13:44:00;32.35;;;21.73;;
39102;SDS011;24847;48.218;16.414;2022-11-15T13:49:08;32.67;;;20.30;;
39102;SDS011;24847;48.218;16.414;2022-11-15T13:54:16;28.80;;;18.20;;
39102;SDS011;24847;48.218;16.414;2022-11-15T13:59:25;23.40;;;16.20;;
39102;SDS011;24847;48.218;16.414;2022-11-15T14:04:31;26.02;;;17.20;;
39102;SDS011;24847;48.218;16.414;2022-11-15T14:09:35;29.00;;;19.02;;
39102;SDS011;24847;48.218;16.414;2022-11-15T14:14:44;28.83;;;19.38;;
39102;SDS011;24847;48.218;16.414;2022-11-15T14:19:48;30.95;;;20.48;;
39102;SDS011;24847;48.218;16.414;2022-11-15T14:25:06;31.65;;;21.45;;
39102;SDS011;24847;48.218;16.414;2022-11-15T14:30:16;29.88;;;20.13;;
39102;SDS011;24847;48.218;16.414;2022-11-15T14:35:22;32.38;;;20.77;;
39102;SDS011;24847;48.218;16.414;2022-11-15T14:40:24;28.60;;;19.08;;
39102;SDS011;24847;48.218;16.414;2022-11-15T14:45:27;27.98;;;19.42;;
39102;SDS011;24847;48.218;16.414;2022-11-15T14:50:31;30.70;;;19.55;;
39102;SDS011;24847;48.218;16.414;2022-11-15T14:55:34;28.20;;;18.63;;
39102;SDS011;24847;48.218;16.414;2022-11-15T15:00:38;27.25;;;18.67;;
39102;SDS011;24847;48.218;16.414;2022-11-15T15:05:43;29.60;;;20.80;;
39102;SDS011;24847;48.218;16.414;2022-11-15T15:10:46;29.27;;;19.80;;
39102;SDS011;24847;48.218;16.414;2022-11-15T15:15:48;30.38;;;20.55;;
39102;SDS011;24847;48.218;16.414;2022-11-15T15:20:55;30.85;;;21.52;;
39102;SDS011;24847;48.218;16.414;2022-11-15T15:26:00;30.30;;;20.42;;
39102;SDS011;24847;48.218;16.414;2022-11-15T15:31:02;26.50;;;18.33;;
39102;SDS011;24847;48.218;16.414;2022-11-15T15:36:07;35.50;;;24.35;;
39102;SDS011;24847;48.218;16.414;2022-11-15T15:41:12;37.13;;;23.52;;
39102;SDS011;24847;48.218;16.414;2022-11-15T15:46:17;44.08;;;27.27;;
39102;SDS011;24847;48.218;16.414;2022-11-15T15:51:21;41.22;;;26.48;;
39102;SDS011;24847;48.218;16.414;2022-11-15T15:56:24;36.65;;;24.73;;
39102;SDS011;24847;48.218;16.414;2022-11-15T16:01:26;49.95;;;31.45;;
39102;SDS011;24847;48.218;16.414;2022-11-15T16:06:36;41.75;;;26.02;;
39102;SDS011;24847;48.218;16.414;2022-11-15T16:11:44;39.85;;;24.95;;
39102;SDS011;24847;48.218;16.414;2022-11-15T16:16:47;36.70;;;24.48;;
39102;SDS011;24847;48.218;16.414;2022-11-15T16:21:51;35.72;;;24.58;;
39102;SDS011;24847;48.218;16.414;2022-11-15T16:26:54;32.58;;;21.80;;
39102;SDS011;24847;48.218;16.414;2022-11-15T16:31:56;32.28;;;22.52;;
39102;SDS011;24847;48.218;16.414;2022-11-15T16:37:00;29.88;;;20.85;;
39102;SDS011;24847;48.218;16.414;2022-11-15T16:42:03;26.60;;;18.95;;
39102;SDS011;24847;48.218;16.414;2022-11-15T16:47:09;26.45;;;18.05;;
39102;SDS011;24847;48.218;16.414;2022-11-15T16:52:19;25.65;;;17.92;;
39102;SDS011;24847;48.218;16.414;2022-11-15T16:57:22;23.85;;;16.33;;
39102;SDS011;24847;48.218;16.414;2022-11-15T17:02:24;22.73;;;15.50;;
39102;SDS011;24847;48.218;16.414;2022-11-15T17:07:28;23.30;;;15.77;;
39102;SDS011;24847;48.218;16.414;2022-11-15T17:12:31;22.42;;;15.05;;
39102;SDS011;24847;48.218;16.414;2022-11-15T17:17:33;24.30;;;16.50;;
39102;SDS011;24847;48.218;16.414;2022-11-15T17:22:37;25.30;;;16.48;;
39102;SDS011;24847;48.218;16.414;2022-11-15T17:27:40;23.67;;;15.52;;
39102;SDS011;24847;48.218;16.414;2022-11-15T17:32:44;23.65;;;15.98;;
39102;SDS011;24847;48.218;16.414;2022-11-15T17:37:50;26.05;;;16.98;;
39102;SDS011;24847;48.218;16.414;2022-11-15T17:42:53;28.75;;;19.33;;
39102;SDS011;24847;48.218;16.414;2022-11-15T17:47:56;31.80;;;20.73;;
39102;SDS011;24847;48.218;16.414;2022-11-15T17:53:00;26.42;;;18.88;;
39102;SDS011;24847;48.218;16.414;2022-11-15T17:58:03;29.35;;;19.10;;
39102;SDS011;24847;48.218;16.414;2022-11-15T18:03:05;25.77;;;17.50;;
39102;SDS011;24847;48.218;16.414;2022-11-15T18:08:10;23.05;;;15.57;;
39102;SDS011;24847;48.218;16.414;2022-11-15T18:13:17;20.92;;;14.65;;
39102;SDS011;24847;48.218;16.414;2022-11-15T18:18:19;26.70;;;18.42;;
39102;SDS011;24847;48.218;16.414;2022-11-15T18:23:24;29.17;;;19.58;;
39102;SDS011;24847;48.218;16.414;2022-11-15T18:28:29;28.95;;;19.05;;
39102;SDS011;24847;48.218;16.414;2022-11-15T18:33:34;33.80;;;22.17;;
39102;SDS011;24847;48.218;16.414;2022-11-15T18:38:39;31.30;;;21.83;;
39102;SDS011;24847;48.218;16.414;2022-11-15T18:43:44;30.27;;;19.65;;
39102;SDS011;24847;48.218;16.414;2022-11-15T18:48:49;32.45;;;21.70;;
39102;SDS011;24847;48.218;16.414;2022-11-15T18:54:00;28.30;;;19.08;;
39102;SDS011;24847;48.218;16.414;2022-11-15T18:59:03;30.08;;;19.70;;
39102;SDS011;24847;48.218;16.414;2022-11-15T19:04:08;24.63;;;17.30;;
39102;SDS011;24847;48.218;16.414;2022-11-15T19:09:15;22.63;;;14.88;;
39102;SDS011;24847;48.218;16.414;2022-11-15T19:14:20;16.98;;;12.40;;
39102;SDS011;24847;48.218;16.414;2022-11-15T19:19:25;18.20;;;11.55;;
39102;SDS011;24847;48.218;16.414;2022-11-15T19:24:31;17.08;;;10.88;;
39102;SDS011;24847;48.218;16.414;2022-11-15T19:29:34;16.38;;;10.43;;
39102;SDS011;24847;48.218;16.414;2022-11-15T19:34:38;15.25;;;10.70;;
39102;SDS011;24847;48.218;16.414;2022-11-15T19:39:43;15.43;;;10.05;;
39102;SDS011;24847;48.218;16.414;2022-11-15T19:44:46;14.70;;;9.68;;
39102;SDS011;24847;48.218;16.414;2022-11-15T19:49:50;12.57;;;9.65;;
39102;SDS011;24847;48.218;16.414;2022-11-15T19:54:55;14.68;;;10.52;;
39102;SDS011;24847;48.218;16.414;2022-11-15T19:59:58;15.20;;;11.10;;
39102;SDS011;24847;48.218;16.414;2022-11-15T20:05:02;34.67;;;22.75;;
39102;SDS011;24847;48.218;16.414;2022-11-15T20:10:07;21.48;;;14.20;;
39102;SDS011;24847;48.218;16.414;2022-11-15T20:15:10;17.00;;;11.55;;
39102;SDS011;24847;48.218;16.414;2022-11-15T20:20:14;18.50;;;12.73;;
39102;SDS011;24847;48.218;16.414;2022-11-15T20:25:20;20.25;;;12.38;;
39102;SDS011;24847;48.218;16.414;2022-11-15T20:30:22;15.80;;;11.55;;
39102;SDS011;24847;48.218;16.414;2022-11-15T20:35:29;18.92;;;12.52;;
39102;SDS011;24847;48.218;16.414;2022-11-15T20:40:34;21.92;;;13.50;;
39102;SDS011;24847;48.218;16.414;2022-11-15T20:45:38;20.70;;;13.55;;
39102;SDS011;24847;48.218;16.414;2022-11-15T20:50:41;22.55;;;15.45;;
39102;SDS011;24847;48.218;16.414;2022-11-15T20:55:49;22.52;;;14.93;;
39102;SDS011;24847;48.218;16.414;2022-11-15T21:00:54;23.83;;;15.00;;
39102;SDS011;24847;48.218;16.414;2022-11-15T21:05:57;23.67;;;15.45;;
39102;SDS011;24847;48.218;16.414;2022-11-15T21:11:01;21.20;;;13.95;;
39102;SDS011;24847;48.218;16.414;2022-11-15T21:16:21;21.60;;;14.15;;
39102;SDS011;24847;48.218;16.414;2022-11-15T21:21:23;20.90;;;14.35;;
39102;SDS011;24847;48.218;16.414;2022-11-15T21:26:27;21.65;;;13.93;;
39102;SDS011;24847;48.218;16.414;2022-11-15T21:31:29;21.63;;;14.38;;
39102;SDS011;24847;48.218;16.414;2022-11-15T21:36:32;22.98;;;15.25;;
39102;SDS011;24847;48.218;16.414;2022-11-15T21:41:36;24.30;;;15.73;;
39102;SDS011;24847;48.218;16.414;2022-11-15T21:46:38;23.73;;;15.27;;
39102;SDS011;24847;48.218;16.414;2022-11-15T21:51:41;25.17;;;16.67;;
39102;SDS011;24847;48.218;16.414;2022-11-15T21:56:45;22.88;;;15.05;;
39102;SDS011;24847;48.218;16.414;2022-11-15T22:01:47;22.90;;;15.85;;
39102;SDS011;24847;48.218;16.414;2022-11-15T22:07:07;22.65;;;14.40;;
39102;SDS011;24847;48.218;16.414;2022-11-15T22:12:11;24.23;;;15.18;;
39102;SDS011;24847;48.218;16.414;2022-11-15T22:17:13;21.10;;;14.70;;
39102;SDS011;24847;48.218;16.414;2022-11-15T22:22:15;18.95;;;13.27;;
39102;SDS011;24847;48.218;16.414;2022-11-15T22:27:19;21.20;;;14.30;;
39102;SDS011;24847;48.218;16.414;2022-11-15T22:32:21;21.67;;;14.60;;
39102;SDS011;24847;48.218;16.414;2022-11-15T22:37:23;20.20;;;14.20;;
39102;SDS011;24847;48.218;16.414;2022-11-15T22:42:27;21.35;;;13.48;;
39102;SDS011;24847;48.218;16.414;2022-11-15T22:47:29;27.55;;;16.70;;
39102;SDS011;24847;48.218;16.414;2022-11-15T22:52:31;19.40;;;13.50;;
39102;SDS011;24847;48.218;16.414;2022-11-15T22:57:35;22.15;;;15.02;;
39102;SDS011;24847;48.218;16.414;2022-11-15T23:02:38;22.63;;;14.88;;
39102;SDS011;24847;48.218;16.414;2022-11-15T23:07:40;21.30;;;13.63;;
39102;SDS011;24847;48.218;16.414;2022-11-15T23:12:44;21.52;;;13.05;;
39102;SDS011;24847;48.218;16.414;2022-11-15T23:18:04;24.05;;;13.93;;
39102;SDS011;24847;48.218;16.414;2022-11-15T23:23:06;21.58;;;14.07;;
39102;SDS011;24847;48.218;16.414;2022-11-15T23:28:10;18.13;;;12.63;;
39102;SDS011;24847;48.218;16.414;2022-11-15T23:33:13;21.98;;;14.50;;
39102;SDS011;24847;48.218;16.414;2022-11-15T23:38:33;21.88;;;13.90;;
39102;SDS011;24847;48.218;16.414;2022-11-15T23:43:38;22.90;;;14.27;;
39102;SDS011;24847;48.218;16.414;2022-11-15T23:48:41;23.92;;;14.55;;
39102;SDS011;24847;48.218;16.414;2022-11-15T23:53:43;25.10;;;15.15;;
39102;SDS011;24847;48.218;16.414;2022-11-15T23:58:47;24.73;;;14.75;;
